<?xml version="1.0" encoding="UTF-8" standalone="no" ?>
<gpx xmlns="http://www.topografix.com/GPX/1/1" xmlns:xsi="http://www.w3.org/2001/XMLSchema-instance" xsi:schemaLocation="http://www.topografix.com/GPX/1/1 http://www.topografix.com/GPX/1/1/gpx.xsd" version="1.1" creator="VisuGPX - https://www.visugpx.com">
  <metadata>
    <name>2015-03-12 Mélanie-Bande</name>
    <desc><![CDATA[Sortie de reprise CàP]]></desc>
  </metadata>
  <trk>
    <name><![CDATA[today]]></name>
    <trkseg>
      <trkpt lat="45.4766" lon="5.76475">
        <ele>559</ele>
        <time>2015-03-12T15:40:29Z</time>
      </trkpt>
      <trkpt lat="45.47662" lon="5.76481">
        <ele>559</ele>
        <time>2015-03-12T15:40:34Z</time>
      </trkpt>
      <trkpt lat="45.47663" lon="5.76482">
        <ele>559</ele>
        <time>2015-03-12T15:40:39Z</time>
      </trkpt>
      <trkpt lat="45.47665" lon="5.76483">
        <ele>559</ele>
        <time>2015-03-12T15:40:44Z</time>
      </trkpt>
      <trkpt lat="45.47677" lon="5.76494">
        <ele>578.683555521</ele>
        <time>2015-03-12T15:40:49Z</time>
      </trkpt>
      <trkpt lat="45.47691" lon="5.76487">
        <ele>581.207247484</ele>
        <time>2015-03-12T15:40:54Z</time>
      </trkpt>
      <trkpt lat="45.47695" lon="5.76491">
        <ele>581.207247484</ele>
        <time>2015-03-12T15:40:59Z</time>
      </trkpt>
      <trkpt lat="45.47699" lon="5.76502">
        <ele>583.26007422</ele>
        <time>2015-03-12T15:41:04Z</time>
      </trkpt>
      <trkpt lat="45.47701" lon="5.76512">
        <ele>583.26007422</ele>
        <time>2015-03-12T15:41:09Z</time>
      </trkpt>
      <trkpt lat="45.47701" lon="5.76523">
        <ele>586.143563176</ele>
        <time>2015-03-12T15:41:14Z</time>
      </trkpt>
      <trkpt lat="45.47704" lon="5.76533">
        <ele>586.143563176</ele>
        <time>2015-03-12T15:41:19Z</time>
      </trkpt>
      <trkpt lat="45.47704" lon="5.76546">
        <ele>588.63725413</ele>
        <time>2015-03-12T15:41:24Z</time>
      </trkpt>
      <trkpt lat="45.47702" lon="5.76555">
        <ele>588.63725413</ele>
        <time>2015-03-12T15:41:29Z</time>
      </trkpt>
      <trkpt lat="45.47701" lon="5.76573">
        <ele>591.337998414</ele>
        <time>2015-03-12T15:41:34Z</time>
      </trkpt>
      <trkpt lat="45.47699" lon="5.76585">
        <ele>594.038941555</ele>
        <time>2015-03-12T15:41:39Z</time>
      </trkpt>
      <trkpt lat="45.47699" lon="5.76594">
        <ele>594.038941555</ele>
        <time>2015-03-12T15:41:44Z</time>
      </trkpt>
      <trkpt lat="45.47696" lon="5.76609">
        <ele>597.479942049</ele>
        <time>2015-03-12T15:41:49Z</time>
      </trkpt>
      <trkpt lat="45.47696" lon="5.76613">
        <ele>597.479942049</ele>
        <time>2015-03-12T15:41:54Z</time>
      </trkpt>
      <trkpt lat="45.47696" lon="5.76623">
        <ele>600.805642169</ele>
        <time>2015-03-12T15:41:59Z</time>
      </trkpt>
      <trkpt lat="45.47696" lon="5.76631">
        <ele>600.805642169</ele>
        <time>2015-03-12T15:42:04Z</time>
      </trkpt>
      <trkpt lat="45.47696" lon="5.76639">
        <ele>603.497269062</ele>
        <time>2015-03-12T15:42:09Z</time>
      </trkpt>
      <trkpt lat="45.47695" lon="5.7665">
        <ele>603.497269062</ele>
        <time>2015-03-12T15:42:14Z</time>
      </trkpt>
      <trkpt lat="45.47694" lon="5.76662">
        <ele>606.266777092</ele>
        <time>2015-03-12T15:42:19Z</time>
      </trkpt>
      <trkpt lat="45.47692" lon="5.76669">
        <ele>606.266777092</ele>
        <time>2015-03-12T15:42:24Z</time>
      </trkpt>
      <trkpt lat="45.47692" lon="5.7668">
        <ele>609.944340499</ele>
        <time>2015-03-12T15:42:29Z</time>
      </trkpt>
      <trkpt lat="45.47694" lon="5.76689">
        <ele>609.944340499</ele>
        <time>2015-03-12T15:42:34Z</time>
      </trkpt>
      <trkpt lat="45.47696" lon="5.76702">
        <ele>611.79182064</ele>
        <time>2015-03-12T15:42:39Z</time>
      </trkpt>
      <trkpt lat="45.47699" lon="5.76711">
        <ele>611.79182064</ele>
        <time>2015-03-12T15:42:44Z</time>
      </trkpt>
      <trkpt lat="45.47696" lon="5.76721">
        <ele>613.153515566</ele>
        <time>2015-03-12T15:42:49Z</time>
      </trkpt>
      <trkpt lat="45.47694" lon="5.76728">
        <ele>613.153515566</ele>
        <time>2015-03-12T15:42:54Z</time>
      </trkpt>
      <trkpt lat="45.47695" lon="5.76741">
        <ele>614.601714608</ele>
        <time>2015-03-12T15:42:59Z</time>
      </trkpt>
      <trkpt lat="45.47698" lon="5.76747">
        <ele>614.601714608</ele>
        <time>2015-03-12T15:43:04Z</time>
      </trkpt>
      <trkpt lat="45.47692" lon="5.76754">
        <ele>616.155228348</ele>
        <time>2015-03-12T15:43:09Z</time>
      </trkpt>
      <trkpt lat="45.47692" lon="5.76764">
        <ele>616.155228348</ele>
        <time>2015-03-12T15:43:14Z</time>
      </trkpt>
      <trkpt lat="45.47698" lon="5.76775">
        <ele>617.49857496</ele>
        <time>2015-03-12T15:43:19Z</time>
      </trkpt>
      <trkpt lat="45.47691" lon="5.76787">
        <ele>618.996314138</ele>
        <time>2015-03-12T15:43:24Z</time>
      </trkpt>
      <trkpt lat="45.47689" lon="5.76793">
        <ele>618.996314138</ele>
        <time>2015-03-12T15:43:29Z</time>
      </trkpt>
      <trkpt lat="45.47691" lon="5.76803">
        <ele>620.80477485</ele>
        <time>2015-03-12T15:43:34Z</time>
      </trkpt>
      <trkpt lat="45.47695" lon="5.76817">
        <ele>622.113434881</ele>
        <time>2015-03-12T15:43:39Z</time>
      </trkpt>
      <trkpt lat="45.47696" lon="5.76829">
        <ele>622.113434881</ele>
        <time>2015-03-12T15:43:44Z</time>
      </trkpt>
      <trkpt lat="45.47693" lon="5.7684">
        <ele>623.606657287</ele>
        <time>2015-03-12T15:43:49Z</time>
      </trkpt>
      <trkpt lat="45.47686" lon="5.76832">
        <ele>624.964871923</ele>
        <time>2015-03-12T15:43:54Z</time>
      </trkpt>
      <trkpt lat="45.47691" lon="5.76839">
        <ele>624.964871923</ele>
        <time>2015-03-12T15:43:59Z</time>
      </trkpt>
      <trkpt lat="45.47691" lon="5.76851">
        <ele>626.807101361</ele>
        <time>2015-03-12T15:44:04Z</time>
      </trkpt>
      <trkpt lat="45.47688" lon="5.76853">
        <ele>626.807101361</ele>
        <time>2015-03-12T15:44:09Z</time>
      </trkpt>
      <trkpt lat="45.47692" lon="5.76862">
        <ele>627.751705781</ele>
        <time>2015-03-12T15:44:14Z</time>
      </trkpt>
      <trkpt lat="45.47691" lon="5.76873">
        <ele>627.751705781</ele>
        <time>2015-03-12T15:44:19Z</time>
      </trkpt>
      <trkpt lat="45.47696" lon="5.76885">
        <ele>628.189593405</ele>
        <time>2015-03-12T15:44:24Z</time>
      </trkpt>
      <trkpt lat="45.47696" lon="5.76898">
        <ele>628.189593405</ele>
        <time>2015-03-12T15:44:29Z</time>
      </trkpt>
      <trkpt lat="45.47697" lon="5.76907">
        <ele>628.606988596</ele>
        <time>2015-03-12T15:44:34Z</time>
      </trkpt>
      <trkpt lat="45.47699" lon="5.76911">
        <ele>628.606988596</ele>
        <time>2015-03-12T15:44:39Z</time>
      </trkpt>
      <trkpt lat="45.47709" lon="5.76927">
        <ele>629.005843619</ele>
        <time>2015-03-12T15:44:44Z</time>
      </trkpt>
      <trkpt lat="45.47714" lon="5.76935">
        <ele>629.005843619</ele>
        <time>2015-03-12T15:44:49Z</time>
      </trkpt>
      <trkpt lat="45.47717" lon="5.76945">
        <ele>629.52823094</ele>
        <time>2015-03-12T15:44:54Z</time>
      </trkpt>
      <trkpt lat="45.47724" lon="5.76949">
        <ele>629.52823094</ele>
        <time>2015-03-12T15:44:59Z</time>
      </trkpt>
      <trkpt lat="45.47723" lon="5.76957">
        <ele>631.563157059</ele>
        <time>2015-03-12T15:45:04Z</time>
      </trkpt>
      <trkpt lat="45.47725" lon="5.76973">
        <ele>633.862401941</ele>
        <time>2015-03-12T15:45:09Z</time>
      </trkpt>
      <trkpt lat="45.47719" lon="5.76986">
        <ele>634.854909988</ele>
        <time>2015-03-12T15:45:14Z</time>
      </trkpt>
      <trkpt lat="45.47732" lon="5.76998">
        <ele>635.847418035</ele>
        <time>2015-03-12T15:45:19Z</time>
      </trkpt>
      <trkpt lat="45.47738" lon="5.77005">
        <ele>635.847418035</ele>
        <time>2015-03-12T15:45:24Z</time>
      </trkpt>
      <trkpt lat="45.47731" lon="5.77006">
        <ele>637.957849914</ele>
        <time>2015-03-12T15:45:29Z</time>
      </trkpt>
      <trkpt lat="45.47741" lon="5.77014">
        <ele>639.350830329</ele>
        <time>2015-03-12T15:45:34Z</time>
      </trkpt>
      <trkpt lat="45.47745" lon="5.77016">
        <ele>639.350830329</ele>
        <time>2015-03-12T15:45:39Z</time>
      </trkpt>
      <trkpt lat="45.47747" lon="5.7703">
        <ele>641.326865659</ele>
        <time>2015-03-12T15:45:44Z</time>
      </trkpt>
      <trkpt lat="45.47754" lon="5.77042">
        <ele>643.847466103</ele>
        <time>2015-03-12T15:45:49Z</time>
      </trkpt>
      <trkpt lat="45.47758" lon="5.77044">
        <ele>643.847466103</ele>
        <time>2015-03-12T15:45:54Z</time>
      </trkpt>
      <trkpt lat="45.47756" lon="5.77039">
        <ele>643.847466103</ele>
        <time>2015-03-12T15:45:59Z</time>
      </trkpt>
      <trkpt lat="45.47762" lon="5.77052">
        <ele>647.158082744</ele>
        <time>2015-03-12T15:46:04Z</time>
      </trkpt>
      <trkpt lat="45.47775" lon="5.77046">
        <ele>651.349887988</ele>
        <time>2015-03-12T15:46:09Z</time>
      </trkpt>
      <trkpt lat="45.47777" lon="5.7706">
        <ele>655.232287751</ele>
        <time>2015-03-12T15:46:14Z</time>
      </trkpt>
      <trkpt lat="45.47768" lon="5.77064">
        <ele>658.38929999</ele>
        <time>2015-03-12T15:46:19Z</time>
      </trkpt>
      <trkpt lat="45.47766" lon="5.77078">
        <ele>661.864339198</ele>
        <time>2015-03-12T15:46:24Z</time>
      </trkpt>
      <trkpt lat="45.47774" lon="5.77085">
        <ele>664.187541192</ele>
        <time>2015-03-12T15:46:29Z</time>
      </trkpt>
      <trkpt lat="45.47773" lon="5.77087">
        <ele>664.187541192</ele>
        <time>2015-03-12T15:46:34Z</time>
      </trkpt>
      <trkpt lat="45.47783" lon="5.77095">
        <ele>666.298434672</ele>
        <time>2015-03-12T15:46:39Z</time>
      </trkpt>
      <trkpt lat="45.47784" lon="5.77095">
        <ele>666.298434672</ele>
        <time>2015-03-12T15:46:44Z</time>
      </trkpt>
      <trkpt lat="45.47787" lon="5.77094">
        <ele>666.298434672</ele>
        <time>2015-03-12T15:46:49Z</time>
      </trkpt>
      <trkpt lat="45.47789" lon="5.77096">
        <ele>666.298434672</ele>
        <time>2015-03-12T15:46:54Z</time>
      </trkpt>
      <trkpt lat="45.47787" lon="5.77103">
        <ele>669.823279681</ele>
        <time>2015-03-12T15:46:59Z</time>
      </trkpt>
      <trkpt lat="45.47785" lon="5.77105">
        <ele>669.823279681</ele>
        <time>2015-03-12T15:47:04Z</time>
      </trkpt>
      <trkpt lat="45.47785" lon="5.77112">
        <ele>669.823279681</ele>
        <time>2015-03-12T15:47:09Z</time>
      </trkpt>
      <trkpt lat="45.47792" lon="5.77119">
        <ele>672.165421482</ele>
        <time>2015-03-12T15:47:14Z</time>
      </trkpt>
      <trkpt lat="45.47794" lon="5.77127">
        <ele>672.165421482</ele>
        <time>2015-03-12T15:47:19Z</time>
      </trkpt>
      <trkpt lat="45.47798" lon="5.7713">
        <ele>675.176927144</ele>
        <time>2015-03-12T15:47:24Z</time>
      </trkpt>
      <trkpt lat="45.478" lon="5.77134">
        <ele>675.176927144</ele>
        <time>2015-03-12T15:47:29Z</time>
      </trkpt>
      <trkpt lat="45.47818" lon="5.77143">
        <ele>677.770151012</ele>
        <time>2015-03-12T15:47:34Z</time>
      </trkpt>
      <trkpt lat="45.47827" lon="5.7715">
        <ele>680.869199461</ele>
        <time>2015-03-12T15:47:39Z</time>
      </trkpt>
      <trkpt lat="45.47839" lon="5.77149">
        <ele>682.93680441</ele>
        <time>2015-03-12T15:47:44Z</time>
      </trkpt>
      <trkpt lat="45.47847" lon="5.77148">
        <ele>682.93680441</ele>
        <time>2015-03-12T15:47:49Z</time>
      </trkpt>
      <trkpt lat="45.4786" lon="5.77151">
        <ele>684.196745482</ele>
        <time>2015-03-12T15:47:54Z</time>
      </trkpt>
      <trkpt lat="45.47872" lon="5.77148">
        <ele>684.712085754</ele>
        <time>2015-03-12T15:47:59Z</time>
      </trkpt>
      <trkpt lat="45.47886" lon="5.77153">
        <ele>685.300218733</ele>
        <time>2015-03-12T15:48:04Z</time>
      </trkpt>
      <trkpt lat="45.4789" lon="5.77158">
        <ele>685.300218733</ele>
        <time>2015-03-12T15:48:09Z</time>
      </trkpt>
      <trkpt lat="45.47898" lon="5.77162">
        <ele>684.755927313</ele>
        <time>2015-03-12T15:48:14Z</time>
      </trkpt>
      <trkpt lat="45.47902" lon="5.77166">
        <ele>684.755927313</ele>
        <time>2015-03-12T15:48:19Z</time>
      </trkpt>
      <trkpt lat="45.47911" lon="5.77169">
        <ele>682.875498364</ele>
        <time>2015-03-12T15:48:24Z</time>
      </trkpt>
      <trkpt lat="45.47921" lon="5.7717">
        <ele>681.589551868</ele>
        <time>2015-03-12T15:48:29Z</time>
      </trkpt>
      <trkpt lat="45.47937" lon="5.77163">
        <ele>680.1111207</ele>
        <time>2015-03-12T15:48:34Z</time>
      </trkpt>
      <trkpt lat="45.47942" lon="5.77161">
        <ele>680.1111207</ele>
        <time>2015-03-12T15:48:39Z</time>
      </trkpt>
      <trkpt lat="45.47953" lon="5.77166">
        <ele>677.565619714</ele>
        <time>2015-03-12T15:48:44Z</time>
      </trkpt>
      <trkpt lat="45.47969" lon="5.77169">
        <ele>674.806273922</ele>
        <time>2015-03-12T15:48:49Z</time>
      </trkpt>
      <trkpt lat="45.47982" lon="5.77181">
        <ele>672.316278294</ele>
        <time>2015-03-12T15:48:54Z</time>
      </trkpt>
      <trkpt lat="45.47994" lon="5.77189">
        <ele>669.788638794</ele>
        <time>2015-03-12T15:48:59Z</time>
      </trkpt>
      <trkpt lat="45.48" lon="5.77202">
        <ele>666.493527563</ele>
        <time>2015-03-12T15:49:04Z</time>
      </trkpt>
      <trkpt lat="45.48011" lon="5.77215">
        <ele>662.508986641</ele>
        <time>2015-03-12T15:49:09Z</time>
      </trkpt>
      <trkpt lat="45.48023" lon="5.77228">
        <ele>659.542238496</ele>
        <time>2015-03-12T15:49:14Z</time>
      </trkpt>
      <trkpt lat="45.48038" lon="5.77227">
        <ele>657.22662066</ele>
        <time>2015-03-12T15:49:19Z</time>
      </trkpt>
      <trkpt lat="45.4805" lon="5.77234">
        <ele>654.780564616</ele>
        <time>2015-03-12T15:49:24Z</time>
      </trkpt>
      <trkpt lat="45.48053" lon="5.77228">
        <ele>654.780564616</ele>
        <time>2015-03-12T15:49:29Z</time>
      </trkpt>
      <trkpt lat="45.48044" lon="5.7722">
        <ele>652.225358384</ele>
        <time>2015-03-12T15:49:34Z</time>
      </trkpt>
      <trkpt lat="45.48057" lon="5.77228">
        <ele>649.874668671</ele>
        <time>2015-03-12T15:49:39Z</time>
      </trkpt>
      <trkpt lat="45.48064" lon="5.77235">
        <ele>649.874668671</ele>
        <time>2015-03-12T15:49:44Z</time>
      </trkpt>
      <trkpt lat="45.4807" lon="5.77241">
        <ele>647.574918984</ele>
        <time>2015-03-12T15:49:49Z</time>
      </trkpt>
      <trkpt lat="45.48084" lon="5.77251">
        <ele>645.624230116</ele>
        <time>2015-03-12T15:49:54Z</time>
      </trkpt>
      <trkpt lat="45.48093" lon="5.77257">
        <ele>644.295195925</ele>
        <time>2015-03-12T15:49:59Z</time>
      </trkpt>
      <trkpt lat="45.48105" lon="5.77269">
        <ele>643.3988749</ele>
        <time>2015-03-12T15:50:04Z</time>
      </trkpt>
      <trkpt lat="45.48106" lon="5.77275">
        <ele>643.3988749</ele>
        <time>2015-03-12T15:50:09Z</time>
      </trkpt>
      <trkpt lat="45.4811" lon="5.77283">
        <ele>644.362616776</ele>
        <time>2015-03-12T15:50:14Z</time>
      </trkpt>
      <trkpt lat="45.48107" lon="5.77286">
        <ele>644.362616776</ele>
        <time>2015-03-12T15:50:19Z</time>
      </trkpt>
      <trkpt lat="45.48108" lon="5.77292">
        <ele>644.362616776</ele>
        <time>2015-03-12T15:50:24Z</time>
      </trkpt>
      <trkpt lat="45.48113" lon="5.77303">
        <ele>645.295685053</ele>
        <time>2015-03-12T15:50:29Z</time>
      </trkpt>
      <trkpt lat="45.4812" lon="5.77308">
        <ele>645.295685053</ele>
        <time>2015-03-12T15:50:34Z</time>
      </trkpt>
      <trkpt lat="45.48125" lon="5.77314">
        <ele>646.635999514</ele>
        <time>2015-03-12T15:50:39Z</time>
      </trkpt>
      <trkpt lat="45.48122" lon="5.77321">
        <ele>646.635999514</ele>
        <time>2015-03-12T15:50:44Z</time>
      </trkpt>
      <trkpt lat="45.48127" lon="5.77332">
        <ele>647.335379719</ele>
        <time>2015-03-12T15:50:50Z</time>
      </trkpt>
      <trkpt lat="45.4814" lon="5.77333">
        <ele>648.022520889</ele>
        <time>2015-03-12T15:50:55Z</time>
      </trkpt>
      <trkpt lat="45.48158" lon="5.77339">
        <ele>649.711178071</ele>
        <time>2015-03-12T15:51:01Z</time>
      </trkpt>
      <trkpt lat="45.48163" lon="5.77351">
        <ele>651.309784395</ele>
        <time>2015-03-12T15:51:06Z</time>
      </trkpt>
      <trkpt lat="45.48173" lon="5.77361">
        <ele>652.966545291</ele>
        <time>2015-03-12T15:51:09Z</time>
      </trkpt>
      <trkpt lat="45.4818" lon="5.77374">
        <ele>654.67357919</ele>
        <time>2015-03-12T15:51:16Z</time>
      </trkpt>
      <trkpt lat="45.48189" lon="5.77382">
        <ele>655.845845267</ele>
        <time>2015-03-12T15:51:20Z</time>
      </trkpt>
      <trkpt lat="45.48192" lon="5.77383">
        <ele>655.845845267</ele>
        <time>2015-03-12T15:51:26Z</time>
      </trkpt>
      <trkpt lat="45.48201" lon="5.77383">
        <ele>656.664963414</ele>
        <time>2015-03-12T15:51:36Z</time>
      </trkpt>
      <trkpt lat="45.48221" lon="5.77348">
        <ele>655.56853638</ele>
        <time>2015-03-12T15:51:51Z</time>
      </trkpt>
      <trkpt lat="45.48225" lon="5.77347">
        <ele>655.56853638</ele>
        <time>2015-03-12T15:51:56Z</time>
      </trkpt>
      <trkpt lat="45.48234" lon="5.77349">
        <ele>654.432577059</ele>
        <time>2015-03-12T15:52:00Z</time>
      </trkpt>
      <trkpt lat="45.48243" lon="5.77342">
        <ele>652.974780444</ele>
        <time>2015-03-12T15:52:06Z</time>
      </trkpt>
      <trkpt lat="45.48267" lon="5.77329">
        <ele>651.367082196</ele>
        <time>2015-03-12T15:52:16Z</time>
      </trkpt>
      <trkpt lat="45.48279" lon="5.77319">
        <ele>649.913207596</ele>
        <time>2015-03-12T15:52:27Z</time>
      </trkpt>
      <trkpt lat="45.48283" lon="5.7729">
        <ele>647.452244473</ele>
        <time>2015-03-12T15:52:37Z</time>
      </trkpt>
      <trkpt lat="45.48286" lon="5.77268">
        <ele>643.92057219</ele>
        <time>2015-03-12T15:52:40Z</time>
      </trkpt>
      <trkpt lat="45.48303" lon="5.77251">
        <ele>640.27131738</ele>
        <time>2015-03-12T15:52:46Z</time>
      </trkpt>
      <trkpt lat="45.48316" lon="5.77251">
        <ele>636.811099593</ele>
        <time>2015-03-12T15:52:56Z</time>
      </trkpt>
      <trkpt lat="45.48343" lon="5.77253">
        <ele>634.111784426</ele>
        <time>2015-03-12T15:53:06Z</time>
      </trkpt>
      <trkpt lat="45.48361" lon="5.77245">
        <ele>630.826399923</ele>
        <time>2015-03-12T15:53:17Z</time>
      </trkpt>
      <trkpt lat="45.48368" lon="5.77234">
        <ele>627.72715455</ele>
        <time>2015-03-12T15:53:19Z</time>
      </trkpt>
      <trkpt lat="45.48376" lon="5.77226">
        <ele>625.240499829</ele>
        <time>2015-03-12T15:53:26Z</time>
      </trkpt>
      <trkpt lat="45.48379" lon="5.77225">
        <ele>625.240499829</ele>
        <time>2015-03-12T15:53:31Z</time>
      </trkpt>
      <trkpt lat="45.48389" lon="5.77224">
        <ele>623.903919726</ele>
        <time>2015-03-12T15:53:36Z</time>
      </trkpt>
      <trkpt lat="45.48396" lon="5.7723">
        <ele>623.903919726</ele>
        <time>2015-03-12T15:53:40Z</time>
      </trkpt>
      <trkpt lat="45.48392" lon="5.77251">
        <ele>624.067786282</ele>
        <time>2015-03-12T15:53:56Z</time>
      </trkpt>
      <trkpt lat="45.48387" lon="5.77258">
        <ele>624.067786282</ele>
        <time>2015-03-12T15:53:59Z</time>
      </trkpt>
      <trkpt lat="45.4838" lon="5.77266">
        <ele>625.042648956</ele>
        <time>2015-03-12T15:54:08Z</time>
      </trkpt>
      <trkpt lat="45.48379" lon="5.77274">
        <ele>625.042648956</ele>
        <time>2015-03-12T15:54:16Z</time>
      </trkpt>
      <trkpt lat="45.48385" lon="5.77295">
        <ele>626.187185326</ele>
        <time>2015-03-12T15:54:19Z</time>
      </trkpt>
      <trkpt lat="45.48384" lon="5.773">
        <ele>626.187185326</ele>
        <time>2015-03-12T15:54:27Z</time>
      </trkpt>
      <trkpt lat="45.48378" lon="5.77315">
        <ele>627.483517566</ele>
        <time>2015-03-12T15:54:31Z</time>
      </trkpt>
      <trkpt lat="45.48377" lon="5.7732">
        <ele>627.483517566</ele>
        <time>2015-03-12T15:54:36Z</time>
      </trkpt>
      <trkpt lat="45.48373" lon="5.77337">
        <ele>630.212737807</ele>
        <time>2015-03-12T15:54:41Z</time>
      </trkpt>
      <trkpt lat="45.48372" lon="5.77342">
        <ele>630.212737807</ele>
        <time>2015-03-12T15:54:46Z</time>
      </trkpt>
      <trkpt lat="45.4837" lon="5.77352">
        <ele>632.961238304</ele>
        <time>2015-03-12T15:54:50Z</time>
      </trkpt>
      <trkpt lat="45.48353" lon="5.77384">
        <ele>636.005921452</ele>
        <time>2015-03-12T15:55:01Z</time>
      </trkpt>
      <trkpt lat="45.48351" lon="5.77391">
        <ele>636.005921452</ele>
        <time>2015-03-12T15:55:06Z</time>
      </trkpt>
      <trkpt lat="45.48348" lon="5.774">
        <ele>639.169760002</ele>
        <time>2015-03-12T15:55:10Z</time>
      </trkpt>
      <trkpt lat="45.48344" lon="5.77419">
        <ele>641.855743981</ele>
        <time>2015-03-12T15:55:16Z</time>
      </trkpt>
      <trkpt lat="45.48342" lon="5.77452">
        <ele>645.675669873</ele>
        <time>2015-03-12T15:55:29Z</time>
      </trkpt>
      <trkpt lat="45.48346" lon="5.77472">
        <ele>648.369720316</ele>
        <time>2015-03-12T15:55:36Z</time>
      </trkpt>
      <trkpt lat="45.48339" lon="5.77485">
        <ele>650.876371664</ele>
        <time>2015-03-12T15:55:40Z</time>
      </trkpt>
      <trkpt lat="45.48347" lon="5.77505">
        <ele>653.200373477</ele>
        <time>2015-03-12T15:55:51Z</time>
      </trkpt>
      <trkpt lat="45.48364" lon="5.77523">
        <ele>655.779401924</ele>
        <time>2015-03-12T15:55:56Z</time>
      </trkpt>
      <trkpt lat="45.48375" lon="5.77526">
        <ele>658.729946895</ele>
        <time>2015-03-12T15:56:06Z</time>
      </trkpt>
      <trkpt lat="45.48386" lon="5.77534">
        <ele>662.014867532</ele>
        <time>2015-03-12T15:56:10Z</time>
      </trkpt>
      <trkpt lat="45.48393" lon="5.77533">
        <ele>662.014867532</ele>
        <time>2015-03-12T15:56:16Z</time>
      </trkpt>
      <trkpt lat="45.48407" lon="5.77533">
        <ele>665.743201222</ele>
        <time>2015-03-12T15:56:20Z</time>
      </trkpt>
      <trkpt lat="45.4842" lon="5.77552">
        <ele>668.717362888</ele>
        <time>2015-03-12T15:56:30Z</time>
      </trkpt>
      <trkpt lat="45.48426" lon="5.77561">
        <ele>671.560321205</ele>
        <time>2015-03-12T15:56:41Z</time>
      </trkpt>
      <trkpt lat="45.48425" lon="5.77574">
        <ele>671.560321205</ele>
        <time>2015-03-12T15:56:44Z</time>
      </trkpt>
      <trkpt lat="45.48422" lon="5.77582">
        <ele>675.426405737</ele>
        <time>2015-03-12T15:56:54Z</time>
      </trkpt>
      <trkpt lat="45.48407" lon="5.77619">
        <ele>679.220025295</ele>
        <time>2015-03-12T15:57:00Z</time>
      </trkpt>
      <trkpt lat="45.48408" lon="5.77623">
        <ele>679.220025295</ele>
        <time>2015-03-12T15:57:06Z</time>
      </trkpt>
      <trkpt lat="45.48411" lon="5.77636">
        <ele>682.935758605</ele>
        <time>2015-03-12T15:57:12Z</time>
      </trkpt>
      <trkpt lat="45.48403" lon="5.77655">
        <ele>686.424930558</ele>
        <time>2015-03-12T15:57:15Z</time>
      </trkpt>
      <trkpt lat="45.48404" lon="5.77677">
        <ele>689.550722547</ele>
        <time>2015-03-12T15:57:22Z</time>
      </trkpt>
      <trkpt lat="45.48408" lon="5.77688">
        <ele>689.550722547</ele>
        <time>2015-03-12T15:57:25Z</time>
      </trkpt>
      <trkpt lat="45.48411" lon="5.77698">
        <ele>692.331818479</ele>
        <time>2015-03-12T15:57:31Z</time>
      </trkpt>
      <trkpt lat="45.48407" lon="5.77726">
        <ele>694.210259874</ele>
        <time>2015-03-12T15:57:35Z</time>
      </trkpt>
      <trkpt lat="45.4841" lon="5.77756">
        <ele>696.113198037</ele>
        <time>2015-03-12T15:57:41Z</time>
      </trkpt>
      <trkpt lat="45.48442" lon="5.77782">
        <ele>698.323311698</ele>
        <time>2015-03-12T15:58:00Z</time>
      </trkpt>
      <trkpt lat="45.48445" lon="5.7779">
        <ele>698.323311698</ele>
        <time>2015-03-12T15:58:07Z</time>
      </trkpt>
      <trkpt lat="45.4845" lon="5.77802">
        <ele>700.813666997</ele>
        <time>2015-03-12T15:58:10Z</time>
      </trkpt>
      <trkpt lat="45.48454" lon="5.77808">
        <ele>700.813666997</ele>
        <time>2015-03-12T15:58:15Z</time>
      </trkpt>
      <trkpt lat="45.4846" lon="5.77833">
        <ele>702.117606921</ele>
        <time>2015-03-12T15:58:21Z</time>
      </trkpt>
      <trkpt lat="45.48471" lon="5.77823">
        <ele>703.185731351</ele>
        <time>2015-03-12T15:58:26Z</time>
      </trkpt>
      <trkpt lat="45.48486" lon="5.77825">
        <ele>704.034973333</ele>
        <time>2015-03-12T15:58:37Z</time>
      </trkpt>
      <trkpt lat="45.485" lon="5.77828">
        <ele>705.402431767</ele>
        <time>2015-03-12T15:58:40Z</time>
      </trkpt>
      <trkpt lat="45.48502" lon="5.77827">
        <ele>705.402431767</ele>
        <time>2015-03-12T15:58:47Z</time>
      </trkpt>
      <trkpt lat="45.48525" lon="5.77833">
        <ele>707.825687444</ele>
        <time>2015-03-12T15:58:55Z</time>
      </trkpt>
      <trkpt lat="45.48529" lon="5.77831">
        <ele>707.825687444</ele>
        <time>2015-03-12T15:59:00Z</time>
      </trkpt>
      <trkpt lat="45.48533" lon="5.77841">
        <ele>710.647161997</ele>
        <time>2015-03-12T15:59:06Z</time>
      </trkpt>
      <trkpt lat="45.4854" lon="5.77846">
        <ele>710.647161997</ele>
        <time>2015-03-12T15:59:10Z</time>
      </trkpt>
      <trkpt lat="45.48562" lon="5.77851">
        <ele>712.968444536</ele>
        <time>2015-03-12T15:59:21Z</time>
      </trkpt>
      <trkpt lat="45.48568" lon="5.7786">
        <ele>712.968444536</ele>
        <time>2015-03-12T15:59:31Z</time>
      </trkpt>
      <trkpt lat="45.48572" lon="5.77861">
        <ele>716.264519498</ele>
        <time>2015-03-12T15:59:37Z</time>
      </trkpt>
      <trkpt lat="45.48585" lon="5.77866">
        <ele>719.737780207</ele>
        <time>2015-03-12T15:59:39Z</time>
      </trkpt>
      <trkpt lat="45.4859" lon="5.77871">
        <ele>719.737780207</ele>
        <time>2015-03-12T15:59:44Z</time>
      </trkpt>
      <trkpt lat="45.48603" lon="5.77884">
        <ele>723.65769307</ele>
        <time>2015-03-12T15:59:51Z</time>
      </trkpt>
      <trkpt lat="45.48618" lon="5.77899">
        <ele>726.975852366</ele>
        <time>2015-03-12T15:59:56Z</time>
      </trkpt>
      <trkpt lat="45.48626" lon="5.77902">
        <ele>726.975852366</ele>
        <time>2015-03-12T16:00:00Z</time>
      </trkpt>
      <trkpt lat="45.48638" lon="5.77907">
        <ele>729.875647031</ele>
        <time>2015-03-12T16:00:06Z</time>
      </trkpt>
      <trkpt lat="45.48679" lon="5.77933">
        <ele>732.384246137</ele>
        <time>2015-03-12T16:00:21Z</time>
      </trkpt>
      <trkpt lat="45.48679" lon="5.77937">
        <ele>732.384246137</ele>
        <time>2015-03-12T16:00:28Z</time>
      </trkpt>
      <trkpt lat="45.48684" lon="5.77991">
        <ele>735.104562986</ele>
        <time>2015-03-12T16:00:45Z</time>
      </trkpt>
      <trkpt lat="45.48682" lon="5.7799">
        <ele>735.104562986</ele>
        <time>2015-03-12T16:00:51Z</time>
      </trkpt>
      <trkpt lat="45.48679" lon="5.78">
        <ele>738.30658753</ele>
        <time>2015-03-12T16:00:56Z</time>
      </trkpt>
      <trkpt lat="45.48678" lon="5.78002">
        <ele>738.30658753</ele>
        <time>2015-03-12T16:01:00Z</time>
      </trkpt>
      <trkpt lat="45.48681" lon="5.78025">
        <ele>741.51873637</ele>
        <time>2015-03-12T16:01:05Z</time>
      </trkpt>
      <trkpt lat="45.48683" lon="5.7803">
        <ele>741.51873637</ele>
        <time>2015-03-12T16:01:11Z</time>
      </trkpt>
      <trkpt lat="45.4869" lon="5.78056">
        <ele>744.448327603</ele>
        <time>2015-03-12T16:01:26Z</time>
      </trkpt>
      <trkpt lat="45.48693" lon="5.78066">
        <ele>744.448327603</ele>
        <time>2015-03-12T16:01:32Z</time>
      </trkpt>
      <trkpt lat="45.48704" lon="5.78085">
        <ele>748.698632853</ele>
        <time>2015-03-12T16:01:41Z</time>
      </trkpt>
      <trkpt lat="45.48701" lon="5.78094">
        <ele>748.698632853</ele>
        <time>2015-03-12T16:01:45Z</time>
      </trkpt>
      <trkpt lat="45.487" lon="5.78092">
        <ele>748.698632853</ele>
        <time>2015-03-12T16:02:00Z</time>
      </trkpt>
      <trkpt lat="45.48705" lon="5.78132">
        <ele>754.166363025</ele>
        <time>2015-03-12T16:02:06Z</time>
      </trkpt>
      <trkpt lat="45.487" lon="5.78131">
        <ele>754.166363025</ele>
        <time>2015-03-12T16:02:10Z</time>
      </trkpt>
      <trkpt lat="45.48692" lon="5.78135">
        <ele>758.302628853</ele>
        <time>2015-03-12T16:02:15Z</time>
      </trkpt>
      <trkpt lat="45.48689" lon="5.78135">
        <ele>758.302628853</ele>
        <time>2015-03-12T16:02:21Z</time>
      </trkpt>
      <trkpt lat="45.48674" lon="5.7813">
        <ele>761.487878088</ele>
        <time>2015-03-12T16:02:25Z</time>
      </trkpt>
      <trkpt lat="45.48667" lon="5.78132">
        <ele>761.487878088</ele>
        <time>2015-03-12T16:02:31Z</time>
      </trkpt>
      <trkpt lat="45.4865" lon="5.78116">
        <ele>764.653925362</ele>
        <time>2015-03-12T16:02:41Z</time>
      </trkpt>
      <trkpt lat="45.48634" lon="5.7812">
        <ele>768.087913891</ele>
        <time>2015-03-12T16:02:46Z</time>
      </trkpt>
      <trkpt lat="45.48624" lon="5.78124">
        <ele>771.046517307</ele>
        <time>2015-03-12T16:02:50Z</time>
      </trkpt>
      <trkpt lat="45.48606" lon="5.78118">
        <ele>774.139555492</ele>
        <time>2015-03-12T16:03:00Z</time>
      </trkpt>
      <trkpt lat="45.48606" lon="5.78119">
        <ele>774.139555492</ele>
        <time>2015-03-12T16:03:07Z</time>
      </trkpt>
      <trkpt lat="45.48596" lon="5.78111">
        <ele>777.499495081</ele>
        <time>2015-03-12T16:03:11Z</time>
      </trkpt>
      <trkpt lat="45.4859" lon="5.78105">
        <ele>777.499495081</ele>
        <time>2015-03-12T16:03:16Z</time>
      </trkpt>
      <trkpt lat="45.48579" lon="5.78111">
        <ele>780.816139218</ele>
        <time>2015-03-12T16:03:27Z</time>
      </trkpt>
      <trkpt lat="45.48571" lon="5.78112">
        <ele>780.816139218</ele>
        <time>2015-03-12T16:03:30Z</time>
      </trkpt>
      <trkpt lat="45.48563" lon="5.78108">
        <ele>784.522927527</ele>
        <time>2015-03-12T16:03:35Z</time>
      </trkpt>
      <trkpt lat="45.48555" lon="5.78097">
        <ele>788.876399771</ele>
        <time>2015-03-12T16:03:48Z</time>
      </trkpt>
      <trkpt lat="45.48552" lon="5.78101">
        <ele>788.876399771</ele>
        <time>2015-03-12T16:03:55Z</time>
      </trkpt>
      <trkpt lat="45.48542" lon="5.78091">
        <ele>793.96847171</ele>
        <time>2015-03-12T16:04:01Z</time>
      </trkpt>
      <trkpt lat="45.48531" lon="5.78089">
        <ele>798.153020272</ele>
        <time>2015-03-12T16:04:11Z</time>
      </trkpt>
      <trkpt lat="45.48516" lon="5.78085">
        <ele>803.078056445</ele>
        <time>2015-03-12T16:04:21Z</time>
      </trkpt>
      <trkpt lat="45.48511" lon="5.78079">
        <ele>803.078056445</ele>
        <time>2015-03-12T16:04:24Z</time>
      </trkpt>
      <trkpt lat="45.48509" lon="5.78084">
        <ele>807.386332417</ele>
        <time>2015-03-12T16:04:32Z</time>
      </trkpt>
      <trkpt lat="45.48501" lon="5.78107">
        <ele>811.407447139</ele>
        <time>2015-03-12T16:04:41Z</time>
      </trkpt>
      <trkpt lat="45.48501" lon="5.78115">
        <ele>811.407447139</ele>
        <time>2015-03-12T16:04:51Z</time>
      </trkpt>
      <trkpt lat="45.48501" lon="5.78113">
        <ele>811.407447139</ele>
        <time>2015-03-12T16:04:54Z</time>
      </trkpt>
      <trkpt lat="45.48509" lon="5.78122">
        <ele>816.312430906</ele>
        <time>2015-03-12T16:05:02Z</time>
      </trkpt>
      <trkpt lat="45.48511" lon="5.78118">
        <ele>816.312430906</ele>
        <time>2015-03-12T16:05:07Z</time>
      </trkpt>
      <trkpt lat="45.48513" lon="5.7812">
        <ele>816.312430906</ele>
        <time>2015-03-12T16:05:17Z</time>
      </trkpt>
      <trkpt lat="45.48505" lon="5.78116">
        <ele>822.319292808</ele>
        <time>2015-03-12T16:05:19Z</time>
      </trkpt>
      <trkpt lat="45.48504" lon="5.78114">
        <ele>822.319292808</ele>
        <time>2015-03-12T16:05:24Z</time>
      </trkpt>
      <trkpt lat="45.48504" lon="5.78112">
        <ele>822.319292808</ele>
        <time>2015-03-12T16:05:32Z</time>
      </trkpt>
      <trkpt lat="45.48503" lon="5.78114">
        <ele>822.319292808</ele>
        <time>2015-03-12T16:05:36Z</time>
      </trkpt>
      <trkpt lat="45.48487" lon="5.78103">
        <ele>829.050655072</ele>
        <time>2015-03-12T16:05:56Z</time>
      </trkpt>
      <trkpt lat="45.48483" lon="5.781">
        <ele>829.050655072</ele>
        <time>2015-03-12T16:06:00Z</time>
      </trkpt>
      <trkpt lat="45.48479" lon="5.78101">
        <ele>835.722673857</ele>
        <time>2015-03-12T16:06:07Z</time>
      </trkpt>
      <trkpt lat="45.48474" lon="5.78098">
        <ele>835.722673857</ele>
        <time>2015-03-12T16:06:14Z</time>
      </trkpt>
      <trkpt lat="45.48466" lon="5.78096">
        <ele>841.753559692</ele>
        <time>2015-03-12T16:06:19Z</time>
      </trkpt>
      <trkpt lat="45.48459" lon="5.78095">
        <ele>841.753559692</ele>
        <time>2015-03-12T16:06:27Z</time>
      </trkpt>
      <trkpt lat="45.48456" lon="5.78091">
        <ele>846.750375391</ele>
        <time>2015-03-12T16:06:30Z</time>
      </trkpt>
      <trkpt lat="45.4845" lon="5.7809">
        <ele>846.750375391</ele>
        <time>2015-03-12T16:06:34Z</time>
      </trkpt>
      <trkpt lat="45.48445" lon="5.78085">
        <ele>851.793278921</ele>
        <time>2015-03-12T16:06:41Z</time>
      </trkpt>
      <trkpt lat="45.48441" lon="5.78083">
        <ele>851.793278921</ele>
        <time>2015-03-12T16:06:45Z</time>
      </trkpt>
      <trkpt lat="45.48431" lon="5.78082">
        <ele>855.577366044</ele>
        <time>2015-03-12T16:06:52Z</time>
      </trkpt>
      <trkpt lat="45.4843" lon="5.78083">
        <ele>855.577366044</ele>
        <time>2015-03-12T16:06:56Z</time>
      </trkpt>
      <trkpt lat="45.48427" lon="5.78095">
        <ele>858.914892646</ele>
        <time>2015-03-12T16:07:01Z</time>
      </trkpt>
      <trkpt lat="45.48425" lon="5.78094">
        <ele>858.914892646</ele>
        <time>2015-03-12T16:07:11Z</time>
      </trkpt>
      <trkpt lat="45.48423" lon="5.78092">
        <ele>858.914892646</ele>
        <time>2015-03-12T16:07:21Z</time>
      </trkpt>
      <trkpt lat="45.48406" lon="5.7809">
        <ele>862.127554306</ele>
        <time>2015-03-12T16:07:24Z</time>
      </trkpt>
      <trkpt lat="45.48399" lon="5.78086">
        <ele>862.127554306</ele>
        <time>2015-03-12T16:07:30Z</time>
      </trkpt>
      <trkpt lat="45.48394" lon="5.78081">
        <ele>866.378614035</ele>
        <time>2015-03-12T16:07:40Z</time>
      </trkpt>
      <trkpt lat="45.48383" lon="5.78084">
        <ele>870.581461949</ele>
        <time>2015-03-12T16:07:46Z</time>
      </trkpt>
      <trkpt lat="45.4838" lon="5.78082">
        <ele>870.581461949</ele>
        <time>2015-03-12T16:07:51Z</time>
      </trkpt>
      <trkpt lat="45.48375" lon="5.78079">
        <ele>870.581461949</ele>
        <time>2015-03-12T16:07:59Z</time>
      </trkpt>
      <trkpt lat="45.48367" lon="5.78086">
        <ele>874.882494364</ele>
        <time>2015-03-12T16:08:06Z</time>
      </trkpt>
      <trkpt lat="45.48364" lon="5.78081">
        <ele>874.882494364</ele>
        <time>2015-03-12T16:08:10Z</time>
      </trkpt>
      <trkpt lat="45.48362" lon="5.78082">
        <ele>874.882494364</ele>
        <time>2015-03-12T16:08:15Z</time>
      </trkpt>
      <trkpt lat="45.48354" lon="5.78083">
        <ele>879.849559726</ele>
        <time>2015-03-12T16:08:20Z</time>
      </trkpt>
      <trkpt lat="45.48349" lon="5.78083">
        <ele>879.849559726</ele>
        <time>2015-03-12T16:08:26Z</time>
      </trkpt>
      <trkpt lat="45.48345" lon="5.78082">
        <ele>883.845394936</ele>
        <time>2015-03-12T16:08:36Z</time>
      </trkpt>
      <trkpt lat="45.48336" lon="5.78088">
        <ele>887.373426765</ele>
        <time>2015-03-12T16:08:42Z</time>
      </trkpt>
      <trkpt lat="45.48329" lon="5.78097">
        <ele>890.613314224</ele>
        <time>2015-03-12T16:08:51Z</time>
      </trkpt>
      <trkpt lat="45.48327" lon="5.78103">
        <ele>890.613314224</ele>
        <time>2015-03-12T16:08:56Z</time>
      </trkpt>
      <trkpt lat="45.48323" lon="5.78109">
        <ele>893.732439987</ele>
        <time>2015-03-12T16:09:06Z</time>
      </trkpt>
      <trkpt lat="45.48321" lon="5.78107">
        <ele>893.732439987</ele>
        <time>2015-03-12T16:09:12Z</time>
      </trkpt>
      <trkpt lat="45.48314" lon="5.78117">
        <ele>896.74221755</ele>
        <time>2015-03-12T16:09:14Z</time>
      </trkpt>
      <trkpt lat="45.4831" lon="5.78124">
        <ele>896.74221755</ele>
        <time>2015-03-12T16:09:21Z</time>
      </trkpt>
      <trkpt lat="45.48308" lon="5.78138">
        <ele>899.509501503</ele>
        <time>2015-03-12T16:09:30Z</time>
      </trkpt>
      <trkpt lat="45.48305" lon="5.78141">
        <ele>899.509501503</ele>
        <time>2015-03-12T16:09:35Z</time>
      </trkpt>
      <trkpt lat="45.48305" lon="5.78143">
        <ele>899.509501503</ele>
        <time>2015-03-12T16:09:39Z</time>
      </trkpt>
      <trkpt lat="45.48307" lon="5.78144">
        <ele>899.509501503</ele>
        <time>2015-03-12T16:09:46Z</time>
      </trkpt>
      <trkpt lat="45.48306" lon="5.78146">
        <ele>899.509501503</ele>
        <time>2015-03-12T16:09:49Z</time>
      </trkpt>
      <trkpt lat="45.48307" lon="5.78145">
        <ele>899.509501503</ele>
        <time>2015-03-12T16:09:55Z</time>
      </trkpt>
      <trkpt lat="45.48305" lon="5.78145">
        <ele>899.509501503</ele>
        <time>2015-03-12T16:10:01Z</time>
      </trkpt>
      <trkpt lat="45.48301" lon="5.78144">
        <ele>902.055786804</ele>
        <time>2015-03-12T16:10:06Z</time>
      </trkpt>
      <trkpt lat="45.48297" lon="5.78093">
        <ele>905.842775607</ele>
        <time>2015-03-12T16:10:19Z</time>
      </trkpt>
      <trkpt lat="45.48299" lon="5.78071">
        <ele>908.618573641</ele>
        <time>2015-03-12T16:10:32Z</time>
      </trkpt>
      <trkpt lat="45.48292" lon="5.7804">
        <ele>910.74946275</ele>
        <time>2015-03-12T16:10:40Z</time>
      </trkpt>
      <trkpt lat="45.48277" lon="5.78016">
        <ele>910.991412825</ele>
        <time>2015-03-12T16:10:47Z</time>
      </trkpt>
      <trkpt lat="45.48274" lon="5.78004">
        <ele>910.935180284</ele>
        <time>2015-03-12T16:10:56Z</time>
      </trkpt>
      <trkpt lat="45.48253" lon="5.77965">
        <ele>911.190798265</ele>
        <time>2015-03-12T16:11:07Z</time>
      </trkpt>
      <trkpt lat="45.48249" lon="5.77954">
        <ele>911.190798265</ele>
        <time>2015-03-12T16:11:09Z</time>
      </trkpt>
      <trkpt lat="45.48248" lon="5.77951">
        <ele>910.449100064</ele>
        <time>2015-03-12T16:11:17Z</time>
      </trkpt>
      <trkpt lat="45.48221" lon="5.7791">
        <ele>908.364454843</ele>
        <time>2015-03-12T16:11:28Z</time>
      </trkpt>
      <trkpt lat="45.48205" lon="5.77882">
        <ele>905.340809459</ele>
        <time>2015-03-12T16:11:40Z</time>
      </trkpt>
      <trkpt lat="45.48191" lon="5.77864">
        <ele>900.602004195</ele>
        <time>2015-03-12T16:11:45Z</time>
      </trkpt>
      <trkpt lat="45.48182" lon="5.77852">
        <ele>895.451041004</ele>
        <time>2015-03-12T16:11:50Z</time>
      </trkpt>
      <trkpt lat="45.4818" lon="5.77848">
        <ele>895.451041004</ele>
        <time>2015-03-12T16:11:57Z</time>
      </trkpt>
      <trkpt lat="45.48175" lon="5.77844">
        <ele>890.663753355</ele>
        <time>2015-03-12T16:12:00Z</time>
      </trkpt>
      <trkpt lat="45.48155" lon="5.77811">
        <ele>885.516525735</ele>
        <time>2015-03-12T16:12:06Z</time>
      </trkpt>
      <trkpt lat="45.48142" lon="5.77805">
        <ele>880.204203515</ele>
        <time>2015-03-12T16:12:11Z</time>
      </trkpt>
      <trkpt lat="45.48127" lon="5.77795">
        <ele>875.051475812</ele>
        <time>2015-03-12T16:12:15Z</time>
      </trkpt>
      <trkpt lat="45.48128" lon="5.77791">
        <ele>875.051475812</ele>
        <time>2015-03-12T16:12:20Z</time>
      </trkpt>
      <trkpt lat="45.48124" lon="5.77785">
        <ele>875.051475812</ele>
        <time>2015-03-12T16:12:26Z</time>
      </trkpt>
      <trkpt lat="45.48122" lon="5.77781">
        <ele>870.646498651</ele>
        <time>2015-03-12T16:12:31Z</time>
      </trkpt>
      <trkpt lat="45.48103" lon="5.77756">
        <ele>865.08174075</ele>
        <time>2015-03-12T16:12:36Z</time>
      </trkpt>
      <trkpt lat="45.48098" lon="5.77751">
        <ele>865.08174075</ele>
        <time>2015-03-12T16:12:39Z</time>
      </trkpt>
      <trkpt lat="45.48094" lon="5.77754">
        <ele>859.762974409</ele>
        <time>2015-03-12T16:12:47Z</time>
      </trkpt>
      <trkpt lat="45.48082" lon="5.77728">
        <ele>854.838573435</ele>
        <time>2015-03-12T16:12:56Z</time>
      </trkpt>
      <trkpt lat="45.48076" lon="5.77696">
        <ele>849.147328648</ele>
        <time>2015-03-12T16:13:00Z</time>
      </trkpt>
      <trkpt lat="45.48068" lon="5.77685">
        <ele>843.055997222</ele>
        <time>2015-03-12T16:13:06Z</time>
      </trkpt>
      <trkpt lat="45.48053" lon="5.7767">
        <ele>837.337231314</ele>
        <time>2015-03-12T16:13:11Z</time>
      </trkpt>
      <trkpt lat="45.48036" lon="5.7765">
        <ele>831.984686455</ele>
        <time>2015-03-12T16:13:15Z</time>
      </trkpt>
      <trkpt lat="45.4802" lon="5.77639">
        <ele>826.846694761</ele>
        <time>2015-03-12T16:13:21Z</time>
      </trkpt>
      <trkpt lat="45.48012" lon="5.77633">
        <ele>822.069690131</ele>
        <time>2015-03-12T16:13:25Z</time>
      </trkpt>
      <trkpt lat="45.48008" lon="5.77629">
        <ele>822.069690131</ele>
        <time>2015-03-12T16:13:31Z</time>
      </trkpt>
      <trkpt lat="45.47939" lon="5.77606">
        <ele>817.643561488</ele>
        <time>2015-03-12T16:13:56Z</time>
      </trkpt>
      <trkpt lat="45.47934" lon="5.77595">
        <ele>817.643561488</ele>
        <time>2015-03-12T16:13:59Z</time>
      </trkpt>
      <trkpt lat="45.47925" lon="5.77577">
        <ele>814.133739108</ele>
        <time>2015-03-12T16:14:05Z</time>
      </trkpt>
      <trkpt lat="45.47914" lon="5.7757">
        <ele>811.196225263</ele>
        <time>2015-03-12T16:14:12Z</time>
      </trkpt>
      <trkpt lat="45.47904" lon="5.77561">
        <ele>808.365934832</ele>
        <time>2015-03-12T16:14:16Z</time>
      </trkpt>
      <trkpt lat="45.47889" lon="5.77547">
        <ele>806.219803697</ele>
        <time>2015-03-12T16:14:20Z</time>
      </trkpt>
      <trkpt lat="45.47821" lon="5.77508">
        <ele>804.857536329</ele>
        <time>2015-03-12T16:14:47Z</time>
      </trkpt>
      <trkpt lat="45.47792" lon="5.77469">
        <ele>804.368746186</ele>
        <time>2015-03-12T16:14:55Z</time>
      </trkpt>
      <trkpt lat="45.47781" lon="5.77455">
        <ele>803.824700301</ele>
        <time>2015-03-12T16:15:01Z</time>
      </trkpt>
      <trkpt lat="45.47774" lon="5.77449">
        <ele>803.824700301</ele>
        <time>2015-03-12T16:15:04Z</time>
      </trkpt>
      <trkpt lat="45.47745" lon="5.77431">
        <ele>802.940990639</ele>
        <time>2015-03-12T16:15:13Z</time>
      </trkpt>
      <trkpt lat="45.47719" lon="5.77401">
        <ele>802.031036838</ele>
        <time>2015-03-12T16:15:22Z</time>
      </trkpt>
      <trkpt lat="45.47697" lon="5.77385">
        <ele>801.24077081</ele>
        <time>2015-03-12T16:15:30Z</time>
      </trkpt>
      <trkpt lat="45.47683" lon="5.77374">
        <ele>800.704676314</ele>
        <time>2015-03-12T16:15:36Z</time>
      </trkpt>
      <trkpt lat="45.47675" lon="5.77369">
        <ele>800.704676314</ele>
        <time>2015-03-12T16:15:41Z</time>
      </trkpt>
      <trkpt lat="45.47657" lon="5.77351">
        <ele>800.690397606</ele>
        <time>2015-03-12T16:15:52Z</time>
      </trkpt>
      <trkpt lat="45.47637" lon="5.7732">
        <ele>799.85890494</ele>
        <time>2015-03-12T16:15:55Z</time>
      </trkpt>
      <trkpt lat="45.47624" lon="5.7731">
        <ele>799.133198421</ele>
        <time>2015-03-12T16:16:01Z</time>
      </trkpt>
      <trkpt lat="45.47612" lon="5.77294">
        <ele>798.359135382</ele>
        <time>2015-03-12T16:16:09Z</time>
      </trkpt>
      <trkpt lat="45.47591" lon="5.77281">
        <ele>797.249683179</ele>
        <time>2015-03-12T16:16:16Z</time>
      </trkpt>
      <trkpt lat="45.47573" lon="5.77264">
        <ele>796.404289327</ele>
        <time>2015-03-12T16:16:19Z</time>
      </trkpt>
      <trkpt lat="45.47556" lon="5.77245">
        <ele>795.800991469</ele>
        <time>2015-03-12T16:16:25Z</time>
      </trkpt>
      <trkpt lat="45.47554" lon="5.77241">
        <ele>795.800991469</ele>
        <time>2015-03-12T16:16:31Z</time>
      </trkpt>
      <trkpt lat="45.47552" lon="5.77238">
        <ele>795.800991469</ele>
        <time>2015-03-12T16:16:36Z</time>
      </trkpt>
      <trkpt lat="45.47517" lon="5.77211">
        <ele>793.977480799</ele>
        <time>2015-03-12T16:16:45Z</time>
      </trkpt>
      <trkpt lat="45.47503" lon="5.77193">
        <ele>791.887919452</ele>
        <time>2015-03-12T16:16:51Z</time>
      </trkpt>
      <trkpt lat="45.47492" lon="5.77177">
        <ele>790.128765706</ele>
        <time>2015-03-12T16:16:54Z</time>
      </trkpt>
      <trkpt lat="45.47476" lon="5.77166">
        <ele>788.242833896</ele>
        <time>2015-03-12T16:17:02Z</time>
      </trkpt>
      <trkpt lat="45.47472" lon="5.77164">
        <ele>788.242833896</ele>
        <time>2015-03-12T16:17:04Z</time>
      </trkpt>
      <trkpt lat="45.4745" lon="5.77143">
        <ele>786.383209933</ele>
        <time>2015-03-12T16:17:11Z</time>
      </trkpt>
      <trkpt lat="45.47434" lon="5.77144">
        <ele>784.547445595</ele>
        <time>2015-03-12T16:17:15Z</time>
      </trkpt>
      <trkpt lat="45.47421" lon="5.77134">
        <ele>783.165445912</ele>
        <time>2015-03-12T16:17:20Z</time>
      </trkpt>
      <trkpt lat="45.47419" lon="5.77136">
        <ele>783.165445912</ele>
        <time>2015-03-12T16:17:27Z</time>
      </trkpt>
      <trkpt lat="45.474" lon="5.77124">
        <ele>781.481289801</ele>
        <time>2015-03-12T16:17:30Z</time>
      </trkpt>
      <trkpt lat="45.47383" lon="5.77119">
        <ele>780.668806793</ele>
        <time>2015-03-12T16:17:35Z</time>
      </trkpt>
      <trkpt lat="45.47367" lon="5.77109">
        <ele>780.516093551</ele>
        <time>2015-03-12T16:17:41Z</time>
      </trkpt>
      <trkpt lat="45.47331" lon="5.77089">
        <ele>779.383805904</ele>
        <time>2015-03-12T16:17:58Z</time>
      </trkpt>
      <trkpt lat="45.47333" lon="5.77084">
        <ele>779.383805904</ele>
        <time>2015-03-12T16:17:59Z</time>
      </trkpt>
      <trkpt lat="45.47343" lon="5.77074">
        <ele>779.070300743</ele>
        <time>2015-03-12T16:18:07Z</time>
      </trkpt>
      <trkpt lat="45.47368" lon="5.77066">
        <ele>777.780848989</ele>
        <time>2015-03-12T16:18:16Z</time>
      </trkpt>
      <trkpt lat="45.47392" lon="5.77064">
        <ele>776.305186504</ele>
        <time>2015-03-12T16:18:26Z</time>
      </trkpt>
      <trkpt lat="45.47414" lon="5.77052">
        <ele>774.366785891</ele>
        <time>2015-03-12T16:18:35Z</time>
      </trkpt>
      <trkpt lat="45.47468" lon="5.77051">
        <ele>770.413739534</ele>
        <time>2015-03-12T16:19:01Z</time>
      </trkpt>
      <trkpt lat="45.4751" lon="5.77061">
        <ele>767.625358781</ele>
        <time>2015-03-12T16:19:09Z</time>
      </trkpt>
      <trkpt lat="45.47519" lon="5.77062">
        <ele>767.625358781</ele>
        <time>2015-03-12T16:19:17Z</time>
      </trkpt>
      <trkpt lat="45.47558" lon="5.77083">
        <ele>762.891467888</ele>
        <time>2015-03-12T16:19:30Z</time>
      </trkpt>
      <trkpt lat="45.47577" lon="5.77092">
        <ele>758.235587674</ele>
        <time>2015-03-12T16:19:36Z</time>
      </trkpt>
      <trkpt lat="45.47584" lon="5.77096">
        <ele>758.235587674</ele>
        <time>2015-03-12T16:19:39Z</time>
      </trkpt>
      <trkpt lat="45.47592" lon="5.77093">
        <ele>753.514788861</ele>
        <time>2015-03-12T16:19:47Z</time>
      </trkpt>
      <trkpt lat="45.47609" lon="5.77104">
        <ele>747.732110106</ele>
        <time>2015-03-12T16:19:50Z</time>
      </trkpt>
      <trkpt lat="45.47618" lon="5.77104">
        <ele>747.732110106</ele>
        <time>2015-03-12T16:19:56Z</time>
      </trkpt>
      <trkpt lat="45.47641" lon="5.7712">
        <ele>742.416628234</ele>
        <time>2015-03-12T16:20:06Z</time>
      </trkpt>
      <trkpt lat="45.47719" lon="5.77137">
        <ele>735.669138239</ele>
        <time>2015-03-12T16:20:32Z</time>
      </trkpt>
      <trkpt lat="45.47729" lon="5.77143">
        <ele>729.048411038</ele>
        <time>2015-03-12T16:20:36Z</time>
      </trkpt>
      <trkpt lat="45.47733" lon="5.77144">
        <ele>729.048411038</ele>
        <time>2015-03-12T16:20:41Z</time>
      </trkpt>
      <trkpt lat="45.47735" lon="5.77144">
        <ele>729.048411038</ele>
        <time>2015-03-12T16:20:45Z</time>
      </trkpt>
      <trkpt lat="45.47758" lon="5.77145">
        <ele>722.701218272</ele>
        <time>2015-03-12T16:20:52Z</time>
      </trkpt>
      <trkpt lat="45.47775" lon="5.77143">
        <ele>716.906734421</ele>
        <time>2015-03-12T16:20:54Z</time>
      </trkpt>
      <trkpt lat="45.47788" lon="5.77138">
        <ele>710.91311703</ele>
        <time>2015-03-12T16:21:01Z</time>
      </trkpt>
      <trkpt lat="45.47789" lon="5.77135">
        <ele>710.91311703</ele>
        <time>2015-03-12T16:21:05Z</time>
      </trkpt>
      <trkpt lat="45.47803" lon="5.77135">
        <ele>705.465227283</ele>
        <time>2015-03-12T16:21:10Z</time>
      </trkpt>
      <trkpt lat="45.4782" lon="5.77137">
        <ele>700.386802729</ele>
        <time>2015-03-12T16:21:16Z</time>
      </trkpt>
      <trkpt lat="45.47816" lon="5.77128">
        <ele>700.386802729</ele>
        <time>2015-03-12T16:21:20Z</time>
      </trkpt>
      <trkpt lat="45.47803" lon="5.7712">
        <ele>695.225052944</ele>
        <time>2015-03-12T16:21:25Z</time>
      </trkpt>
      <trkpt lat="45.47802" lon="5.77115">
        <ele>695.225052944</ele>
        <time>2015-03-12T16:21:29Z</time>
      </trkpt>
      <trkpt lat="45.478" lon="5.77098">
        <ele>690.425127411</ele>
        <time>2015-03-12T16:21:36Z</time>
      </trkpt>
      <trkpt lat="45.47799" lon="5.77082">
        <ele>686.110013704</ele>
        <time>2015-03-12T16:21:40Z</time>
      </trkpt>
      <trkpt lat="45.47794" lon="5.77075">
        <ele>686.110013704</ele>
        <time>2015-03-12T16:21:47Z</time>
      </trkpt>
      <trkpt lat="45.47786" lon="5.77068">
        <ele>682.10385981</ele>
        <time>2015-03-12T16:21:50Z</time>
      </trkpt>
      <trkpt lat="45.47777" lon="5.77057">
        <ele>677.954423871</ele>
        <time>2015-03-12T16:21:55Z</time>
      </trkpt>
      <trkpt lat="45.47768" lon="5.77039">
        <ele>674.395765098</ele>
        <time>2015-03-12T16:22:01Z</time>
      </trkpt>
      <trkpt lat="45.47765" lon="5.77032">
        <ele>674.395765098</ele>
        <time>2015-03-12T16:22:09Z</time>
      </trkpt>
      <trkpt lat="45.47753" lon="5.76999">
        <ele>670.232712984</ele>
        <time>2015-03-12T16:22:16Z</time>
      </trkpt>
      <trkpt lat="45.47753" lon="5.76995">
        <ele>670.232712984</ele>
        <time>2015-03-12T16:22:20Z</time>
      </trkpt>
      <trkpt lat="45.47751" lon="5.76984">
        <ele>665.079947987</ele>
        <time>2015-03-12T16:22:26Z</time>
      </trkpt>
      <trkpt lat="45.4772" lon="5.76887">
        <ele>658.438926969</ele>
        <time>2015-03-12T16:23:06Z</time>
      </trkpt>
      <trkpt lat="45.47715" lon="5.76854">
        <ele>652.157488191</ele>
        <time>2015-03-12T16:23:16Z</time>
      </trkpt>
      <trkpt lat="45.4771" lon="5.76842">
        <ele>645.208406316</ele>
        <time>2015-03-12T16:23:21Z</time>
      </trkpt>
      <trkpt lat="45.47702" lon="5.76819">
        <ele>638.226799528</ele>
        <time>2015-03-12T16:23:24Z</time>
      </trkpt>
      <trkpt lat="45.47703" lon="5.76761">
        <ele>631.22455417</ele>
        <time>2015-03-12T16:23:39Z</time>
      </trkpt>
      <trkpt lat="45.47715" lon="5.76742">
        <ele>625.221287431</ele>
        <time>2015-03-12T16:23:47Z</time>
      </trkpt>
      <trkpt lat="45.47705" lon="5.76687">
        <ele>618.708783497</ele>
        <time>2015-03-12T16:24:05Z</time>
      </trkpt>
      <trkpt lat="45.47707" lon="5.76685">
        <ele>618.708783497</ele>
        <time>2015-03-12T16:24:10Z</time>
      </trkpt>
      <trkpt lat="45.47707" lon="5.76653">
        <ele>611.731912778</ele>
        <time>2015-03-12T16:24:22Z</time>
      </trkpt>
      <trkpt lat="45.47704" lon="5.76624">
        <ele>605.630302738</ele>
        <time>2015-03-12T16:24:25Z</time>
      </trkpt>
      <trkpt lat="45.47706" lon="5.76611">
        <ele>599.91313216</ele>
        <time>2015-03-12T16:24:32Z</time>
      </trkpt>
      <trkpt lat="45.47712" lon="5.7658">
        <ele>594.700751721</ele>
        <time>2015-03-12T16:24:42Z</time>
      </trkpt>
      <trkpt lat="45.4771" lon="5.76558">
        <ele>589.238342506</ele>
        <time>2015-03-12T16:24:45Z</time>
      </trkpt>
      <trkpt lat="45.47708" lon="5.76548">
        <ele>589.238342506</ele>
        <time>2015-03-12T16:24:50Z</time>
      </trkpt>
      <trkpt lat="45.47706" lon="5.76541">
        <ele>584.123998262</ele>
        <time>2015-03-12T16:24:55Z</time>
      </trkpt>
      <trkpt lat="45.47676" lon="5.76502">
        <ele>577.604891219</ele>
        <time>2015-03-12T16:25:06Z</time>
      </trkpt>
      <trkpt lat="45.47665" lon="5.76486">
        <ele>571.6634516</ele>
        <time>2015-03-12T16:25:10Z</time>
      </trkpt>
      <trkpt lat="45.47659" lon="5.76486">
        <ele>571.6634516</ele>
        <time>2015-03-12T16:25:14Z</time>
      </trkpt>
    </trkseg>
  </trk>
</gpx>